createdAt,value
2022-12-12T00:01:56.531Z,11.43
2022-12-12T00:04:25.061Z,9.77
2022-12-12T00:06:53.402Z,13.10
2022-12-12T00:09:23.226Z,12.52
2022-12-12T00:11:51.955Z,16.42
2022-12-12T00:14:20.331Z,14.10
2022-12-12T00:16:48.719Z,13.63
2022-12-12T00:19:17.045Z,14.07
2022-12-12T00:21:45.759Z,16.27
2022-12-12T00:24:14.121Z,16.60
2022-12-12T00:26:44.130Z,14.95
2022-12-12T00:29:12.727Z,13.48
2022-12-12T00:31:41.903Z,15.52
2022-12-12T00:34:10.275Z,14.07
2022-12-12T00:36:38.797Z,14.63
2022-12-12T00:39:07.940Z,13.70
2022-12-12T00:41:38.189Z,16.75
2022-12-12T00:44:08.775Z,14.02
2022-12-12T00:46:37.384Z,12.63
2022-12-12T00:49:05.839Z,13.15
2022-12-12T00:51:34.317Z,10.80
2022-12-12T00:54:02.714Z,12.20
2022-12-12T00:56:32.260Z,11.60
2022-12-12T00:59:00.734Z,10.82
2022-12-12T01:01:37.842Z,9.57
2022-12-12T01:04:06.626Z,10.82
2022-12-12T01:06:35.259Z,11.60
2022-12-12T01:09:04.119Z,10.48
2022-12-12T01:11:32.774Z,10.15
2022-12-12T01:14:01.984Z,10.18
2022-12-12T01:16:31.034Z,8.93
2022-12-12T01:19:01.398Z,8.80
2022-12-12T01:21:29.798Z,8.32
2022-12-12T01:23:58.121Z,8.63
2022-12-12T01:26:26.897Z,8.80
2022-12-12T01:28:55.362Z,7.97
2022-12-12T01:31:24.221Z,6.60
2022-12-12T01:33:53.350Z,7.15
2022-12-12T01:36:25.306Z,12.25
2022-12-12T01:38:57.189Z,14.02
2022-12-12T01:41:26.379Z,12.73
2022-12-12T01:43:54.785Z,12.60
2022-12-12T01:46:34.975Z,12.05
2022-12-12T01:49:10.984Z,15.10
2022-12-12T01:51:42.689Z,13.05
2022-12-12T01:54:15.918Z,12.90
2022-12-12T01:56:46.505Z,11.95
2022-12-12T01:59:19.277Z,10.90
2022-12-12T02:01:47.952Z,6.68
2022-12-12T02:04:17.978Z,9.05
2022-12-12T02:06:48.877Z,9.77
2022-12-12T02:09:18.880Z,8.55
2022-12-12T02:11:49.704Z,7.78
2022-12-12T02:14:22.574Z,9.57
2022-12-12T02:17:35.394Z,8.70
2022-12-12T02:20:35.461Z,10.55
2022-12-12T02:23:37.889Z,5.70
2022-12-12T02:26:45.691Z,6.32
2022-12-12T02:30:01.099Z,6.13
2022-12-12T02:32:40.424Z,6.70
2022-12-12T02:35:18.448Z,5.97
2022-12-12T02:37:55.474Z,5.78
2022-12-12T02:40:29.736Z,5.65
2022-12-12T02:43:04.972Z,5.75
2022-12-12T02:45:38.688Z,5.40
2022-12-12T02:48:16.305Z,5.18
2022-12-12T02:50:46.721Z,6.18
2022-12-12T02:53:19.397Z,5.43
2022-12-12T02:55:48.150Z,6.35
2022-12-12T02:58:17.098Z,5.15
2022-12-12T03:00:57.252Z,6.80
2022-12-12T03:04:01.249Z,4.43
2022-12-12T03:07:04.966Z,5.95
2022-12-12T03:09:45.658Z,4.45
2022-12-12T03:12:20.784Z,5.45
2022-12-12T03:14:56.709Z,5.32
2022-12-12T03:17:32.808Z,5.35
2022-12-12T03:20:13.105Z,7.10
2022-12-12T03:22:47.606Z,6.30
2022-12-12T03:25:21.118Z,7.25
2022-12-12T03:30:23.890Z,4.95
2022-12-12T03:33:01.620Z,4.65
2022-12-12T03:35:37.646Z,5.97
2022-12-12T03:38:10.813Z,4.72
2022-12-12T03:40:43.329Z,4.55
2022-12-12T03:43:15.753Z,4.10
2022-12-12T03:45:53.094Z,6.22
2022-12-12T03:48:29.600Z,5.32
2022-12-12T03:51:03.824Z,5.38
2022-12-12T03:53:37.577Z,5.18
2022-12-12T03:56:09.625Z,5.10
2022-12-12T03:58:43.900Z,5.20
2022-12-12T04:01:14.777Z,5.70
2022-12-12T04:03:49.799Z,5.35
2022-12-12T04:06:29.562Z,6.75
2022-12-12T04:09:18.045Z,5.60
2022-12-12T04:12:16.135Z,6.72
2022-12-12T04:15:05.308Z,6.47
2022-12-12T04:17:41.496Z,7.15
2022-12-12T04:20:40.717Z,6.68
2022-12-12T04:23:21.273Z,5.47
2022-12-12T04:26:19.624Z,6.65
2022-12-12T04:28:56.220Z,7.97
2022-12-12T04:31:28.347Z,7.13
2022-12-12T04:34:02.799Z,6.28
2022-12-12T04:36:33.410Z,9.48
2022-12-12T04:39:06.123Z,9.00
2022-12-12T04:41:36.098Z,7.55
2022-12-12T04:44:08.751Z,6.25
2022-12-12T04:46:39.459Z,4.00
2022-12-12T04:49:13.650Z,4.90
2022-12-12T04:51:46.561Z,5.50
2022-12-12T04:54:23.727Z,7.85
2022-12-12T04:56:55.937Z,7.20
2022-12-12T04:59:25.041Z,5.35
2022-12-12T05:01:59.504Z,6.25
2022-12-12T05:04:33.623Z,5.60
2022-12-12T05:07:09.016Z,4.63
2022-12-12T05:09:39.585Z,5.60
2022-12-12T05:12:08.252Z,6.00
2022-12-12T05:14:36.616Z,5.72
2022-12-12T05:17:09.490Z,6.45
2022-12-12T05:19:38.578Z,4.60
2022-12-12T05:22:07.184Z,4.47
2022-12-12T05:24:35.643Z,6.55
2022-12-12T05:27:06.152Z,5.90
2022-12-12T05:29:34.688Z,5.10
2022-12-12T05:32:03.081Z,5.90
2022-12-12T05:34:31.473Z,5.57
2022-12-12T05:37:00.914Z,9.95
2022-12-12T05:39:29.308Z,16.70
2022-12-12T05:41:57.989Z,14.93
2022-12-12T05:44:27.907Z,8.27
2022-12-12T05:46:56.924Z,9.48
2022-12-12T05:49:25.388Z,4.65
2022-12-12T05:51:53.670Z,6.32
2022-12-12T05:54:22.741Z,7.97
2022-12-12T05:56:51.408Z,3.45
2022-12-12T05:59:19.894Z,5.63
2022-12-12T06:01:49.728Z,4.30
2022-12-12T06:04:18.085Z,6.15
2022-12-12T06:06:47.045Z,6.72
2022-12-12T06:09:15.913Z,5.82
2022-12-12T06:11:44.284Z,5.45
2022-12-12T06:14:12.782Z,17.42
2022-12-12T06:16:41.204Z,8.10
2022-12-12T06:19:10.980Z,5.07
2022-12-12T06:21:40.144Z,6.40
2022-12-12T06:24:09.210Z,7.03
2022-12-12T06:26:37.552Z,10.45
2022-12-12T06:29:06.143Z,9.35
2022-12-12T06:31:34.581Z,8.40
2022-12-12T06:34:03.010Z,8.25
2022-12-12T06:36:32.815Z,7.10
2022-12-12T06:39:02.190Z,8.50
2022-12-12T06:41:32.402Z,5.30
2022-12-12T06:44:01.080Z,4.95
2022-12-12T06:46:31.715Z,2.95
2022-12-12T06:49:00.893Z,3.28
2022-12-12T06:51:32.119Z,16.15
2022-12-12T06:54:02.261Z,20.63
2022-12-12T06:56:30.642Z,19.42
2022-12-12T06:59:00.035Z,21.70
2022-12-12T07:01:28.474Z,17.27
2022-12-12T07:03:57.049Z,16.85
2022-12-12T07:06:26.273Z,22.02
2022-12-12T07:08:54.628Z,22.75
2022-12-12T07:11:26.058Z,22.75
2022-12-12T07:13:55.616Z,17.67
2022-12-12T07:16:24.404Z,13.63
2022-12-12T07:18:52.862Z,9.93
2022-12-12T07:21:22.270Z,11.02
2022-12-12T07:23:50.688Z,11.07
2022-12-12T07:26:22.951Z,3.25
2022-12-12T07:28:54.057Z,4.07
2022-12-12T07:31:25.674Z,3.50
2022-12-12T07:33:54.774Z,3.17
2022-12-12T07:36:23.199Z,3.60
2022-12-12T07:38:52.234Z,3.70
2022-12-12T07:41:21.779Z,3.50
2022-12-12T07:43:51.211Z,6.57
2022-12-12T07:46:23.218Z,12.07
2022-12-12T07:48:52.375Z,16.95
2022-12-12T07:51:21.674Z,12.73
2022-12-12T07:53:50.095Z,14.05
2022-12-12T07:56:19.839Z,13.82
2022-12-12T07:58:48.565Z,15.38
2022-12-12T08:01:22.938Z,15.88
2022-12-12T08:03:53.509Z,11.85
2022-12-12T08:06:23.822Z,14.35
2022-12-12T08:08:53.611Z,15.38
2022-12-12T08:11:24.706Z,13.50
2022-12-12T08:13:54.123Z,16.98
2022-12-12T08:16:23.754Z,19.67
2022-12-12T08:18:55.329Z,19.65
2022-12-12T08:21:26.201Z,17.60
2022-12-12T08:23:57.587Z,16.13
2022-12-12T08:26:26.387Z,20.85
2022-12-12T08:28:55.546Z,26.50
2022-12-12T08:31:24.477Z,24.20
2022-12-12T08:33:54.501Z,24.38
2022-12-12T08:36:25.494Z,21.75
2022-12-12T08:38:54.265Z,19.90
2022-12-12T08:41:22.643Z,21.35
2022-12-12T08:43:51.464Z,19.05
2022-12-12T08:46:23.378Z,18.08
2022-12-12T08:48:53.467Z,19.52
2022-12-12T08:51:22.331Z,11.23
2022-12-12T08:53:54.096Z,12.60
2022-12-12T08:56:24.242Z,11.80
2022-12-12T08:58:53.938Z,10.50
2022-12-12T09:01:24.674Z,16.63
2022-12-12T09:03:56.415Z,14.10
2022-12-12T09:06:25.068Z,16.50
2022-12-12T09:08:54.273Z,23.67
2022-12-12T09:11:22.595Z,51.90
2022-12-12T09:13:51.169Z,34.95
2022-12-12T09:16:21.912Z,26.70
2022-12-12T09:18:50.337Z,29.23
2022-12-12T09:21:21.071Z,21.85
2022-12-12T09:23:49.829Z,22.88
2022-12-12T09:26:19.143Z,21.70
2022-12-12T09:28:47.811Z,24.55
2022-12-12T09:31:16.421Z,13.73
2022-12-12T09:33:45.166Z,14.18
2022-12-12T09:36:15.140Z,11.88
2022-12-12T09:38:45.643Z,12.25
2022-12-12T09:41:17.427Z,16.35
2022-12-12T09:43:57.514Z,19.50
2022-12-12T09:46:34.720Z,26.33
2022-12-12T09:49:13.501Z,22.52
2022-12-12T09:51:43.902Z,23.05
2022-12-12T09:54:18.087Z,15.82
2022-12-12T09:56:56.956Z,14.68
2022-12-12T09:59:34.039Z,13.55
2022-12-12T10:02:14.277Z,10.10
2022-12-12T10:04:50.903Z,8.40
2022-12-12T10:07:27.325Z,10.50
2022-12-12T10:10:03.480Z,10.63
2022-12-12T10:12:34.538Z,7.32
2022-12-12T10:15:06.031Z,6.63
2022-12-12T10:17:37.066Z,4.55
2022-12-12T10:20:13.429Z,3.00
2022-12-12T10:22:48.430Z,2.50
2022-12-12T10:25:22.507Z,1.95
2022-12-12T10:27:53.443Z,2.65
2022-12-12T10:30:22.437Z,1.92
2022-12-12T10:33:07.476Z,4.47
2022-12-12T10:35:45.876Z,2.35
2022-12-12T10:38:28.874Z,2.05
2022-12-12T10:41:05.828Z,3.10
2022-12-12T10:43:44.278Z,3.97
2022-12-12T10:46:22.355Z,5.38
2022-12-12T10:48:51.404Z,2.22
2022-12-12T10:51:24.652Z,3.80
2022-12-12T10:53:53.762Z,7.45
2022-12-12T10:56:26.115Z,5.82
2022-12-12T10:58:56.786Z,4.63
2022-12-12T11:02:00.633Z,2.80
2022-12-12T11:04:18.069Z,4.43
2022-12-12T11:06:49.745Z,3.70
2022-12-12T11:09:22.766Z,2.65
2022-12-12T11:12:02.250Z,2.13
2022-12-12T11:14:35.780Z,2.38
2022-12-12T11:17:04.732Z,2.28
2022-12-12T11:19:40.122Z,1.98
2022-12-12T11:22:09.286Z,3.17
2022-12-12T11:24:40.334Z,3.75
2022-12-12T11:27:22.048Z,2.60
2022-12-12T11:29:53.399Z,2.97
2022-12-12T11:32:25.850Z,3.03
2022-12-12T11:34:57.102Z,2.10
2022-12-12T11:37:28.309Z,3.47
2022-12-12T11:39:58.510Z,2.63
2022-12-12T11:42:30.813Z,3.20
2022-12-12T11:45:02.821Z,2.55
2022-12-12T11:47:38.735Z,2.13
2022-12-12T11:50:21.211Z,2.50
2022-12-12T11:52:51.082Z,2.05
2022-12-12T11:55:26.942Z,4.28
2022-12-12T11:58:14.537Z,2.08
2022-12-12T12:00:48.285Z,2.42
2022-12-12T12:03:28.706Z,2.70
2022-12-12T12:06:29.459Z,3.10
2022-12-12T12:09:16.845Z,2.88
2022-12-12T12:11:55.098Z,1.83
2022-12-12T12:14:40.563Z,3.38
2022-12-12T12:17:18.758Z,2.88
2022-12-12T12:19:55.753Z,4.72
2022-12-12T12:22:38.815Z,6.07
2022-12-12T12:25:25.291Z,5.68
2022-12-12T12:28:06.238Z,4.75
2022-12-12T12:30:50.823Z,3.53
2022-12-12T12:33:41.436Z,3.60
2022-12-12T12:36:21.173Z,2.40
2022-12-12T12:39:10.621Z,5.05
2022-12-12T12:41:52.477Z,2.50
2022-12-12T12:44:34.283Z,2.75
2022-12-12T12:47:09.842Z,2.88
2022-12-12T12:49:43.631Z,2.58
2022-12-12T12:52:18.786Z,3.25
2022-12-12T12:54:49.167Z,2.47
2022-12-12T12:57:23.200Z,3.05
2022-12-12T12:59:55.712Z,2.20
2022-12-12T13:02:32.205Z,3.17
2022-12-12T13:05:07.593Z,2.97
2022-12-12T13:07:44.187Z,3.83
2022-12-12T13:10:21.266Z,2.80
2022-12-12T13:12:56.155Z,2.60
2022-12-12T13:15:29.927Z,3.53
2022-12-12T13:18:04.069Z,5.28
2022-12-12T13:20:36.403Z,3.17
2022-12-12T13:23:17.669Z,2.65
2022-12-12T13:25:55.678Z,3.53
2022-12-12T13:28:28.677Z,3.00
2022-12-12T13:31:13.267Z,2.50
2022-12-12T13:33:47.168Z,4.35
2022-12-12T13:36:29.277Z,3.55
2022-12-12T13:39:00.832Z,2.22
2022-12-12T13:41:29.604Z,2.72
2022-12-12T13:43:59.590Z,2.78
2022-12-12T13:46:42.226Z,2.65
2022-12-12T13:49:26.116Z,4.43
2022-12-12T13:52:24.432Z,3.25
2022-12-12T13:54:56.142Z,4.53
2022-12-12T13:57:32.074Z,2.40
2022-12-12T14:00:31.362Z,3.70
2022-12-12T14:03:19.660Z,4.20
2022-12-12T14:05:51.301Z,5.93
2022-12-12T14:08:30.208Z,7.22
2022-12-12T14:11:02.828Z,4.20
2022-12-12T14:13:45.516Z,4.75
2022-12-12T14:16:23.208Z,5.03
2022-12-12T14:19:02.266Z,3.33
2022-12-12T14:21:53.206Z,3.45
2022-12-12T14:24:55.044Z,6.95
2022-12-12T14:27:56.403Z,3.35
2022-12-12T14:30:27.531Z,2.00
2022-12-12T14:33:04.145Z,3.95
2022-12-12T14:35:39.496Z,2.55
2022-12-12T14:38:27.737Z,3.22
2022-12-12T14:41:01.683Z,2.55
2022-12-12T14:46:01.670Z,2.90
2022-12-12T14:48:31.255Z,4.28
2022-12-12T14:51:06.513Z,4.85
2022-12-12T14:53:47.664Z,5.07
2022-12-12T14:56:18.196Z,2.97
2022-12-12T14:58:50.681Z,3.80
2022-12-12T15:01:28.274Z,4.53
2022-12-12T15:03:57.948Z,3.10
2022-12-12T15:06:31.348Z,6.28
2022-12-12T15:09:11.080Z,4.82
2022-12-12T15:11:39.552Z,5.10
2022-12-12T15:14:07.956Z,7.50
2022-12-12T15:16:47.717Z,6.35
2022-12-12T15:19:19.747Z,6.38
2022-12-12T15:21:49.337Z,4.57
2022-12-12T15:24:24.628Z,6.43
2022-12-12T15:26:55.836Z,6.93
2022-12-12T15:29:28.099Z,5.40
2022-12-12T15:32:03.070Z,4.70
2022-12-12T15:34:40.371Z,5.40
2022-12-12T15:37:22.812Z,5.80
2022-12-12T15:40:22.290Z,4.78
2022-12-12T15:42:55.057Z,5.75
2022-12-12T15:45:32.566Z,4.57
2022-12-12T15:48:02.565Z,3.60
2022-12-12T15:50:50.726Z,4.13
2022-12-12T15:53:23.339Z,6.80
2022-12-12T15:55:58.867Z,6.57
2022-12-12T15:58:31.380Z,4.40
2022-12-12T16:01:21.707Z,19.88
2022-12-12T16:03:58.991Z,10.43
2022-12-12T16:06:29.621Z,6.82
2022-12-12T16:09:03.283Z,7.78
2022-12-12T16:11:42.653Z,4.57
2022-12-12T16:14:39.033Z,4.88
2022-12-12T16:17:11.938Z,6.30
2022-12-12T16:19:45.961Z,6.65
2022-12-12T16:22:20.491Z,6.47
2022-12-12T16:24:51.919Z,10.60
2022-12-12T16:27:21.990Z,10.70
2022-12-12T16:29:50.558Z,7.82
2022-12-12T16:32:20.560Z,12.98
2022-12-12T16:34:48.862Z,14.93
2022-12-12T16:37:19.240Z,15.82
2022-12-12T16:39:47.963Z,22.75
2022-12-12T16:42:17.308Z,18.92
2022-12-12T16:44:48.046Z,17.05
2022-12-12T16:47:18.448Z,22.45
2022-12-12T16:49:47.441Z,31.00
2022-12-12T16:52:17.352Z,14.35
2022-12-12T16:54:52.830Z,8.57
2022-12-12T16:57:22.124Z,9.93
2022-12-12T16:59:51.968Z,7.65
2022-12-12T17:02:22.301Z,9.27
2022-12-12T17:04:52.195Z,8.52
2022-12-12T17:07:21.018Z,12.57
2022-12-12T17:09:49.266Z,21.63
2022-12-12T17:12:17.742Z,6.05
2022-12-12T17:14:46.100Z,3.15
2022-12-12T17:17:16.069Z,3.08
2022-12-12T17:19:44.431Z,4.80
2022-12-12T17:22:12.800Z,4.40
2022-12-12T17:24:41.128Z,4.47
2022-12-12T17:27:10.040Z,5.82
2022-12-12T17:29:38.353Z,5.75
2022-12-12T17:32:07.077Z,9.50
2022-12-12T17:34:36.904Z,9.18
2022-12-12T17:37:05.265Z,13.45
2022-12-12T17:39:33.982Z,15.13
2022-12-12T17:42:02.696Z,9.65
2022-12-12T17:44:31.443Z,14.30
2022-12-12T17:47:00.082Z,10.95
2022-12-12T17:49:28.439Z,12.77
2022-12-12T17:51:58.597Z,10.38
2022-12-12T17:54:27.316Z,12.48
2022-12-12T17:56:55.792Z,12.57
2022-12-12T17:59:24.224Z,10.88
2022-12-12T18:01:54.126Z,13.75
2022-12-12T18:04:28.072Z,10.07
2022-12-12T18:06:59.587Z,9.25
2022-12-12T18:09:28.047Z,8.10
2022-12-12T18:11:56.517Z,7.57
2022-12-12T18:14:24.874Z,7.80
2022-12-12T18:16:53.528Z,8.82
2022-12-12T18:19:22.721Z,15.50
2022-12-12T18:22:00.803Z,12.25
2022-12-12T18:24:32.644Z,12.30
2022-12-12T18:27:03.571Z,13.63
2022-12-12T18:29:33.192Z,12.50
2022-12-12T18:32:01.678Z,13.88
2022-12-12T18:34:30.099Z,12.80
2022-12-12T18:36:58.982Z,14.82
2022-12-12T18:39:28.022Z,12.63
2022-12-12T18:41:57.902Z,12.32
2022-12-12T18:44:26.193Z,11.38
2022-12-12T18:46:54.451Z,13.63
2022-12-12T18:49:23.422Z,12.38
2022-12-12T18:51:51.877Z,13.80
2022-12-12T18:54:20.797Z,15.00
2022-12-12T18:56:49.551Z,14.20
2022-12-12T18:59:19.483Z,18.30
2022-12-12T19:01:48.827Z,17.35
2022-12-12T19:04:22.866Z,21.90
2022-12-12T19:06:51.951Z,24.38
2022-12-12T19:09:21.724Z,23.85
2022-12-12T19:11:50.706Z,22.75
2022-12-12T19:14:21.745Z,23.40
2022-12-12T19:16:50.140Z,22.45
2022-12-12T19:19:18.746Z,23.92
2022-12-12T19:21:48.305Z,23.27
2022-12-12T19:24:16.657Z,58.45
2022-12-12T19:26:45.558Z,84.88
2022-12-12T19:29:16.471Z,21.67
2022-12-12T19:31:47.084Z,45.35
2022-12-12T19:34:19.079Z,34.63
2022-12-12T19:36:47.910Z,33.10
2022-12-12T19:39:16.342Z,35.00
2022-12-12T19:41:44.952Z,36.13
2022-12-12T19:44:14.969Z,29.75
2022-12-12T19:46:46.722Z,27.10
2022-12-12T19:49:17.540Z,23.77
2022-12-12T19:51:46.812Z,20.17
2022-12-12T19:54:17.079Z,21.60
2022-12-12T19:56:46.320Z,23.58
2022-12-12T19:59:16.167Z,21.83
2022-12-12T20:01:46.699Z,23.77
2022-12-12T20:04:18.570Z,22.27
2022-12-12T20:06:49.340Z,16.25
2022-12-12T20:09:20.238Z,15.20
2022-12-12T20:11:49.262Z,17.38
2022-12-12T20:14:21.452Z,17.52
2022-12-12T20:16:55.523Z,23.63
2022-12-12T20:19:27.559Z,19.75
2022-12-12T20:22:01.389Z,22.13
2022-12-12T20:24:33.820Z,23.10
2022-12-12T20:27:05.823Z,24.65
2022-12-12T20:29:36.111Z,20.13
2022-12-12T20:32:07.691Z,21.27
2022-12-12T20:34:37.333Z,19.05
2022-12-12T20:37:09.188Z,19.67
2022-12-12T20:39:39.389Z,22.77
2022-12-12T20:42:11.584Z,18.15
2022-12-12T20:44:41.292Z,17.30
2022-12-12T20:47:14.996Z,17.27
2022-12-12T20:49:44.714Z,18.27
2022-12-12T20:52:14.416Z,19.20
2022-12-12T20:54:44.145Z,15.20
2022-12-12T20:57:13.979Z,15.55
2022-12-12T20:59:43.641Z,16.92
2022-12-12T21:02:18.520Z,14.55
2022-12-12T21:04:48.828Z,12.95
2022-12-12T21:07:18.397Z,15.38
2022-12-12T21:09:47.000Z,15.52
2022-12-12T21:12:15.607Z,16.27
2022-12-12T21:14:46.190Z,14.88
2022-12-12T21:17:16.034Z,13.80
2022-12-12T21:19:44.940Z,13.77
2022-12-12T21:22:13.393Z,12.38
2022-12-12T21:24:41.825Z,12.52
2022-12-12T21:27:10.197Z,14.07
2022-12-12T21:29:38.646Z,23.48
2022-12-12T21:32:07.308Z,40.95
2022-12-12T21:34:40.153Z,23.13
2022-12-12T21:37:09.188Z,19.08
2022-12-12T21:39:37.601Z,20.95
2022-12-12T21:42:06.313Z,21.83
2022-12-12T21:44:35.716Z,19.92
2022-12-12T21:47:04.185Z,18.00
2022-12-12T21:49:32.812Z,18.52
2022-12-12T21:52:04.382Z,14.82
2022-12-12T21:54:34.032Z,22.92
2022-12-12T21:57:03.658Z,22.25
2022-12-12T21:59:32.729Z,17.33
2022-12-12T22:02:01.934Z,13.93
2022-12-12T22:04:30.866Z,14.73
2022-12-12T22:06:59.824Z,16.75
2022-12-12T22:09:29.971Z,11.95
2022-12-12T22:12:03.325Z,15.77
2022-12-12T22:14:33.741Z,10.50
2022-12-12T22:17:02.872Z,9.98
2022-12-12T22:19:31.719Z,10.20
2022-12-12T22:22:00.110Z,9.27
2022-12-12T22:24:30.490Z,9.27
2022-12-12T22:26:59.034Z,11.15
2022-12-12T22:29:27.458Z,13.85
2022-12-12T22:31:56.351Z,12.88
2022-12-12T22:34:26.283Z,16.40
2022-12-12T22:36:54.759Z,13.77
2022-12-12T22:39:25.633Z,19.52
2022-12-12T22:41:56.737Z,16.00
2022-12-12T22:44:26.696Z,12.93
2022-12-12T22:46:57.253Z,14.85
2022-12-12T22:49:27.748Z,17.25
2022-12-12T22:51:57.681Z,13.63
2022-12-12T22:54:26.525Z,16.30
2022-12-12T22:56:57.228Z,15.63
2022-12-12T22:59:25.909Z,16.33
2022-12-12T23:01:54.255Z,32.75
2022-12-12T23:04:22.731Z,19.95
2022-12-12T23:06:51.109Z,49.50
2022-12-12T23:09:22.294Z,55.55
2022-12-12T23:11:50.727Z,53.28
2022-12-12T23:14:23.091Z,46.47
2022-12-12T23:16:52.578Z,44.88
2022-12-12T23:19:25.807Z,40.58
2022-12-12T23:21:54.648Z,34.35
2022-12-12T23:24:23.107Z,27.35
2022-12-12T23:26:52.744Z,23.30
2022-12-12T23:29:22.609Z,23.30
2022-12-12T23:31:51.107Z,9.90
2022-12-12T23:34:23.139Z,11.05
2022-12-12T23:36:52.265Z,11.45
2022-12-12T23:39:21.252Z,16.35
2022-12-12T23:41:49.759Z,14.73
2022-12-12T23:44:23.241Z,11.75
2022-12-12T23:49:22.540Z,10.48
2022-12-12T23:51:53.768Z,9.60
2022-12-12T23:54:24.898Z,9.02
2022-12-12T23:56:54.003Z,13.05
2022-12-12T23:59:23.985Z,9.70
